Terminal Aerodrome Forecast
Issued by NWS Jackson, KY

Home | Current Version | Previous Version | Text Only | Print | Product List | Glossary On
Versions: 1 2 3 4 5 6 7 8 9 10 11 12 13 14 15 16 17 18 19
000
FTUS43 KJKL 301100
TAFJKL
TAF
KJKL 301125Z 3012/0112 00000KT 2SM BR SCT002
     FM301300 VRB03KT P6SM SKC
     FM010800 00000KT 3SM BR SKC
     FM010930 00000KT 1 1/2SM BR FEW002
     FM011100 00000KT 1/2SM FG OVC002=

USA.gov is the U.S. government's official web portal to all federal, state and local government web resources and services.